sensor_id;sensor_type;location;lat;lon;timestamp;P1;durP1;ratioP1;P2;durP2;ratioP2
57627;SDS011;43451;49.060;10.616;2022-12-31T00:00:28;5.35;;;2.28;;
57627;SDS011;43451;49.060;10.616;2022-12-31T00:02:54;2.65;;;2.35;;
57627;SDS011;43451;49.060;10.616;2022-12-31T00:05:19;3.53;;;2.20;;
57627;SDS011;43451;49.060;10.616;2022-12-31T00:07:46;2.50;;;2.00;;
57627;SDS011;43451;49.060;10.616;2022-12-31T00:10:12;2.30;;;1.90;;
57627;SDS011;43451;49.060;10.616;2022-12-31T00:12:37;1.95;;;1.73;;
57627;SDS011;43451;49.060;10.616;2022-12-31T00:15:02;2.42;;;2.00;;
57627;SDS011;43451;49.060;10.616;2022-12-31T00:17:28;1.63;;;1.40;;
57627;SDS011;43451;49.060;10.616;2022-12-31T00:19:54;2.88;;;1.75;;
57627;SDS011;43451;49.060;10.616;2022-12-31T00:22:19;2.03;;;1.55;;
57627;SDS011;43451;49.060;10.616;2022-12-31T00:24:45;1.60;;;1.50;;
57627;SDS011;43451;49.060;10.616;2022-12-31T00:27:10;1.50;;;1.30;;
57627;SDS011;43451;49.060;10.616;2022-12-31T00:29:36;2.88;;;1.50;;
57627;SDS011;43451;49.060;10.616;2022-12-31T00:32:01;1.40;;;1.30;;
57627;SDS011;43451;49.060;10.616;2022-12-31T00:34:26;1.60;;;1.30;;
57627;SDS011;43451;49.060;10.616;2022-12-31T00:36:52;2.00;;;1.50;;
57627;SDS011;43451;49.060;10.616;2022-12-31T00:39:17;1.40;;;1.30;;
57627;SDS011;43451;49.060;10.616;2022-12-31T00:41:43;1.70;;;1.40;;
57627;SDS011;43451;49.060;10.616;2022-12-31T00:44:11;1.20;;;1.10;;
57627;SDS011;43451;49.060;10.616;2022-12-31T00:46:37;1.40;;;1.20;;
57627;SDS011;43451;49.060;10.616;2022-12-31T00:49:04;1.92;;;1.20;;
57627;SDS011;43451;49.060;10.616;2022-12-31T00:51:29;2.05;;;1.25;;
57627;SDS011;43451;49.060;10.616;2022-12-31T00:53:55;1.63;;;1.20;;
57627;SDS011;43451;49.060;10.616;2022-12-31T00:56:22;1.67;;;1.20;;
57627;SDS011;43451;49.060;10.616;2022-12-31T00:58:49;2.33;;;1.25;;
57627;SDS011;43451;49.060;10.616;2022-12-31T01:01:16;1.30;;;1.20;;
57627;SDS011;43451;49.060;10.616;2022-12-31T01:03:47;2.70;;;1.35;;
57627;SDS011;43451;49.060;10.616;2022-12-31T01:06:14;1.58;;;1.30;;
57627;SDS011;43451;49.060;10.616;2022-12-31T01:08:40;2.15;;;1.30;;
57627;SDS011;43451;49.060;10.616;2022-12-31T01:11:06;2.35;;;1.40;;
57627;SDS011;43451;49.060;10.616;2022-12-31T01:16:32;1.33;;;1.23;;
57627;SDS011;43451;49.060;10.616;2022-12-31T01:19:00;1.42;;;1.20;;
57627;SDS011;43451;49.060;10.616;2022-12-31T01:21:28;1.73;;;1.38;;
57627;SDS011;43451;49.060;10.616;2022-12-31T01:23:54;1.50;;;1.40;;
57627;SDS011;43451;49.060;10.616;2022-12-31T01:26:20;1.83;;;1.52;;
57627;SDS011;43451;49.060;10.616;2022-12-31T01:28:46;1.65;;;1.35;;
57627;SDS011;43451;49.060;10.616;2022-12-31T01:31:13;1.60;;;1.50;;
57627;SDS011;43451;49.060;10.616;2022-12-31T01:36:06;1.90;;;1.35;;
57627;SDS011;43451;49.060;10.616;2022-12-31T01:38:34;1.48;;;1.38;;
57627;SDS011;43451;49.060;10.616;2022-12-31T01:41:00;1.70;;;1.33;;
57627;SDS011;43451;49.060;10.616;2022-12-31T01:46:11;1.63;;;1.30;;
57627;SDS011;43451;49.060;10.616;2022-12-31T01:48:41;1.60;;;1.50;;
57627;SDS011;43451;49.060;10.616;2022-12-31T01:51:07;3.97;;;1.70;;
57627;SDS011;43451;49.060;10.616;2022-12-31T01:53:34;1.83;;;1.50;;
57627;SDS011;43451;49.060;10.616;2022-12-31T01:56:00;2.63;;;1.30;;
57627;SDS011;43451;49.060;10.616;2022-12-31T01:58:27;1.77;;;1.30;;
57627;SDS011;43451;49.060;10.616;2022-12-31T02:00:56;2.03;;;1.35;;
57627;SDS011;43451;49.060;10.616;2022-12-31T02:03:23;4.40;;;1.98;;
57627;SDS011;43451;49.060;10.616;2022-12-31T02:08:32;1.52;;;1.42;;
57627;SDS011;43451;49.060;10.616;2022-12-31T02:11:00;2.53;;;1.42;;
57627;SDS011;43451;49.060;10.616;2022-12-31T02:13:25;1.98;;;1.42;;
57627;SDS011;43451;49.060;10.616;2022-12-31T02:16:06;1.90;;;1.38;;
57627;SDS011;43451;49.060;10.616;2022-12-31T02:25:07;1.33;;;1.10;;
57627;SDS011;43451;49.060;10.616;2022-12-31T02:27:56;2.08;;;1.30;;
57627;SDS011;43451;49.060;10.616;2022-12-31T02:30:40;1.45;;;1.35;;
57627;SDS011;43451;49.060;10.616;2022-12-31T02:33:13;2.10;;;1.17;;
57627;SDS011;43451;49.060;10.616;2022-12-31T02:35:59;1.67;;;1.42;;
57627;SDS011;43451;49.060;10.616;2022-12-31T02:38:30;1.30;;;1.20;;
57627;SDS011;43451;49.060;10.616;2022-12-31T02:40:58;1.40;;;1.30;;
57627;SDS011;43451;49.060;10.616;2022-12-31T02:43:24;1.80;;;1.10;;
57627;SDS011;43451;49.060;10.616;2022-12-31T02:48:39;1.38;;;0.90;;
57627;SDS011;43451;49.060;10.616;2022-12-31T02:56:24;0.70;;;0.70;;
57627;SDS011;43451;49.060;10.616;2022-12-31T03:01:47;0.60;;;0.60;;
57627;SDS011;43451;49.060;10.616;2022-12-31T03:04:36;0.50;;;0.50;;
57627;SDS011;43451;49.060;10.616;2022-12-31T03:07:03;0.70;;;0.70;;
57627;SDS011;43451;49.060;10.616;2022-12-31T03:09:32;0.60;;;0.57;;
57627;SDS011;43451;49.060;10.616;2022-12-31T03:11:58;0.80;;;0.68;;
57627;SDS011;43451;49.060;10.616;2022-12-31T03:14:42;0.60;;;0.60;;
57627;SDS011;43451;49.060;10.616;2022-12-31T03:17:08;3.17;;;0.60;;
57627;SDS011;43451;49.060;10.616;2022-12-31T03:19:33;2.25;;;0.57;;
57627;SDS011;43451;49.060;10.616;2022-12-31T03:22:17;2.70;;;0.70;;
57627;SDS011;43451;49.060;10.616;2022-12-31T03:27:44;1.83;;;0.70;;
57627;SDS011;43451;49.060;10.616;2022-12-31T03:30:11;0.60;;;0.60;;
57627;SDS011;43451;49.060;10.616;2022-12-31T03:32:38;0.65;;;0.60;;
57627;SDS011;43451;49.060;10.616;2022-12-31T03:35:04;1.52;;;0.60;;
57627;SDS011;43451;49.060;10.616;2022-12-31T03:37:30;0.85;;;0.60;;
57627;SDS011;43451;49.060;10.616;2022-12-31T03:39:55;0.80;;;0.50;;
57627;SDS011;43451;49.060;10.616;2022-12-31T03:42:21;1.08;;;0.55;;
57627;SDS011;43451;49.060;10.616;2022-12-31T03:44:46;0.70;;;0.60;;
57627;SDS011;43451;49.060;10.616;2022-12-31T03:47:12;2.08;;;0.90;;
57627;SDS011;43451;49.060;10.616;2022-12-31T03:49:37;0.90;;;0.70;;
57627;SDS011;43451;49.060;10.616;2022-12-31T03:52:03;0.60;;;0.60;;
57627;SDS011;43451;49.060;10.616;2022-12-31T03:54:30;1.10;;;0.65;;
57627;SDS011;43451;49.060;10.616;2022-12-31T03:56:56;1.45;;;0.73;;
57627;SDS011;43451;49.060;10.616;2022-12-31T03:59:22;1.90;;;0.82;;
57627;SDS011;43451;49.060;10.616;2022-12-31T04:01:47;2.67;;;1.00;;
57627;SDS011;43451;49.060;10.616;2022-12-31T04:04:13;0.77;;;0.75;;
57627;SDS011;43451;49.060;10.616;2022-12-31T04:06:38;1.33;;;0.77;;
57627;SDS011;43451;49.060;10.616;2022-12-31T04:09:04;1.05;;;0.85;;
57627;SDS011;43451;49.060;10.616;2022-12-31T04:11:29;1.10;;;1.00;;
57627;SDS011;43451;49.060;10.616;2022-12-31T04:13:54;0.95;;;0.90;;
57627;SDS011;43451;49.060;10.616;2022-12-31T04:16:20;2.92;;;0.95;;
57627;SDS011;43451;49.060;10.616;2022-12-31T04:18:45;0.90;;;0.80;;
57627;SDS011;43451;49.060;10.616;2022-12-31T04:21:11;1.60;;;1.00;;
57627;SDS011;43451;49.060;10.616;2022-12-31T04:23:36;2.33;;;0.90;;
57627;SDS011;43451;49.060;10.616;2022-12-31T04:26:02;1.95;;;1.00;;
57627;SDS011;43451;49.060;10.616;2022-12-31T04:28:27;3.70;;;1.10;;
57627;SDS011;43451;49.060;10.616;2022-12-31T04:30:53;1.48;;;1.15;;
57627;SDS011;43451;49.060;10.616;2022-12-31T04:33:18;2.67;;;0.90;;
57627;SDS011;43451;49.060;10.616;2022-12-31T04:35:43;1.13;;;1.00;;
57627;SDS011;43451;49.060;10.616;2022-12-31T04:38:09;2.00;;;0.80;;
57627;SDS011;43451;49.060;10.616;2022-12-31T04:40:34;2.28;;;1.00;;
57627;SDS011;43451;49.060;10.616;2022-12-31T04:43:19;1.33;;;0.90;;
57627;SDS011;43451;49.060;10.616;2022-12-31T04:45:45;1.55;;;0.90;;
57627;SDS011;43451;49.060;10.616;2022-12-31T04:48:10;2.30;;;0.90;;
57627;SDS011;43451;49.060;10.616;2022-12-31T04:50:36;3.00;;;0.90;;
57627;SDS011;43451;49.060;10.616;2022-12-31T04:53:01;2.55;;;1.00;;
57627;SDS011;43451;49.060;10.616;2022-12-31T04:55:26;1.25;;;0.75;;
57627;SDS011;43451;49.060;10.616;2022-12-31T04:57:52;1.45;;;0.80;;
57627;SDS011;43451;49.060;10.616;2022-12-31T05:00:17;1.00;;;0.90;;
57627;SDS011;43451;49.060;10.616;2022-12-31T05:02:43;1.50;;;0.70;;
57627;SDS011;43451;49.060;10.616;2022-12-31T05:05:08;2.35;;;0.80;;
57627;SDS011;43451;49.060;10.616;2022-12-31T05:07:33;1.73;;;0.80;;
57627;SDS011;43451;49.060;10.616;2022-12-31T05:09:59;1.67;;;0.80;;
57627;SDS011;43451;49.060;10.616;2022-12-31T05:12:24;1.10;;;0.85;;
57627;SDS011;43451;49.060;10.616;2022-12-31T05:14:50;0.95;;;0.80;;
57627;SDS011;43451;49.060;10.616;2022-12-31T05:17:15;1.02;;;0.70;;
57627;SDS011;43451;49.060;10.616;2022-12-31T05:19:41;0.95;;;0.70;;
57627;SDS011;43451;49.060;10.616;2022-12-31T05:22:06;1.30;;;0.90;;
57627;SDS011;43451;49.060;10.616;2022-12-31T05:24:50;2.55;;;0.80;;
57627;SDS011;43451;49.060;10.616;2022-12-31T05:27:16;1.38;;;0.80;;
57627;SDS011;43451;49.060;10.616;2022-12-31T05:29:41;0.82;;;0.70;;
57627;SDS011;43451;49.060;10.616;2022-12-31T05:32:07;1.88;;;0.95;;
57627;SDS011;43451;49.060;10.616;2022-12-31T05:34:32;1.02;;;0.73;;
57627;SDS011;43451;49.060;10.616;2022-12-31T05:36:58;0.75;;;0.75;;
57627;SDS011;43451;49.060;10.616;2022-12-31T05:39:23;1.02;;;0.90;;
57627;SDS011;43451;49.060;10.616;2022-12-31T05:41:48;1.90;;;0.90;;
57627;SDS011;43451;49.060;10.616;2022-12-31T05:44:14;1.13;;;0.73;;
57627;SDS011;43451;49.060;10.616;2022-12-31T05:46:39;1.42;;;0.80;;
57627;SDS011;43451;49.060;10.616;2022-12-31T05:49:05;2.47;;;0.90;;
57627;SDS011;43451;49.060;10.616;2022-12-31T05:51:30;1.10;;;0.88;;
57627;SDS011;43451;49.060;10.616;2022-12-31T05:53:55;1.63;;;0.80;;
57627;SDS011;43451;49.060;10.616;2022-12-31T05:56:21;1.42;;;0.90;;
57627;SDS011;43451;49.060;10.616;2022-12-31T05:58:46;1.50;;;1.02;;
57627;SDS011;43451;49.060;10.616;2022-12-31T06:01:12;1.92;;;1.23;;
57627;SDS011;43451;49.060;10.616;2022-12-31T06:03:37;1.50;;;1.02;;
57627;SDS011;43451;49.060;10.616;2022-12-31T06:06:02;1.98;;;0.90;;
57627;SDS011;43451;49.060;10.616;2022-12-31T06:08:28;2.83;;;1.10;;
57627;SDS011;43451;49.060;10.616;2022-12-31T06:10:53;2.20;;;1.05;;
57627;SDS011;43451;49.060;10.616;2022-12-31T06:13:19;2.08;;;1.10;;
57627;SDS011;43451;49.060;10.616;2022-12-31T06:15:44;1.13;;;1.02;;
57627;SDS011;43451;49.060;10.616;2022-12-31T06:18:09;1.40;;;1.10;;
57627;SDS011;43451;49.060;10.616;2022-12-31T06:20:35;2.58;;;1.10;;
57627;SDS011;43451;49.060;10.616;2022-12-31T06:23:02;1.42;;;0.88;;
57627;SDS011;43451;49.060;10.616;2022-12-31T06:25:27;1.67;;;1.10;;
57627;SDS011;43451;49.060;10.616;2022-12-31T06:27:53;1.33;;;1.00;;
57627;SDS011;43451;49.060;10.616;2022-12-31T06:30:18;2.75;;;1.30;;
57627;SDS011;43451;49.060;10.616;2022-12-31T06:32:44;1.23;;;1.13;;
57627;SDS011;43451;49.060;10.616;2022-12-31T06:35:09;1.45;;;1.00;;
57627;SDS011;43451;49.060;10.616;2022-12-31T06:37:35;2.17;;;1.10;;
57627;SDS011;43451;49.060;10.616;2022-12-31T06:40:00;2.85;;;1.10;;
57627;SDS011;43451;49.060;10.616;2022-12-31T06:42:29;1.23;;;1.00;;
57627;SDS011;43451;49.060;10.616;2022-12-31T06:44:56;1.17;;;1.00;;
57627;SDS011;43451;49.060;10.616;2022-12-31T06:47:22;2.40;;;1.20;;
57627;SDS011;43451;49.060;10.616;2022-12-31T06:49:48;1.10;;;1.00;;
57627;SDS011;43451;49.060;10.616;2022-12-31T06:52:13;1.23;;;1.02;;
57627;SDS011;43451;49.060;10.616;2022-12-31T06:54:38;1.20;;;1.10;;
57627;SDS011;43451;49.060;10.616;2022-12-31T06:57:05;1.25;;;1.10;;
57627;SDS011;43451;49.060;10.616;2022-12-31T07:10:24;1.45;;;1.00;;
57627;SDS011;43451;49.060;10.616;2022-12-31T07:18:18;1.27;;;1.10;;
57627;SDS011;43451;49.060;10.616;2022-12-31T07:21:10;1.45;;;1.10;;
57627;SDS011;43451;49.060;10.616;2022-12-31T07:23:37;1.23;;;1.13;;
57627;SDS011;43451;49.060;10.616;2022-12-31T07:29:10;1.33;;;1.20;;
57627;SDS011;43451;49.060;10.616;2022-12-31T07:32:08;2.85;;;1.13;;
57627;SDS011;43451;49.060;10.616;2022-12-31T07:34:59;1.63;;;1.30;;
57627;SDS011;43451;49.060;10.616;2022-12-31T07:40:14;2.85;;;1.20;;
57627;SDS011;43451;49.060;10.616;2022-12-31T07:48:33;2.00;;;1.02;;
57627;SDS011;43451;49.060;10.616;2022-12-31T07:50:59;3.47;;;1.23;;
57627;SDS011;43451;49.060;10.616;2022-12-31T07:53:24;1.30;;;1.10;;
57627;SDS011;43451;49.060;10.616;2022-12-31T07:55:54;1.10;;;1.00;;
57627;SDS011;43451;49.060;10.616;2022-12-31T07:59:11;2.25;;;1.10;;
57627;SDS011;43451;49.060;10.616;2022-12-31T08:01:40;1.13;;;1.00;;
57627;SDS011;43451;49.060;10.616;2022-12-31T08:06:58;1.60;;;1.00;;
57627;SDS011;43451;49.060;10.616;2022-12-31T08:10:02;1.75;;;0.90;;
57627;SDS011;43451;49.060;10.616;2022-12-31T08:12:37;1.25;;;0.90;;
57627;SDS011;43451;49.060;10.616;2022-12-31T08:15:12;2.03;;;1.05;;
57627;SDS011;43451;49.060;10.616;2022-12-31T08:17:39;1.02;;;0.90;;
57627;SDS011;43451;49.060;10.616;2022-12-31T08:20:05;1.80;;;1.20;;
57627;SDS011;43451;49.060;10.616;2022-12-31T08:25:14;3.05;;;1.00;;
57627;SDS011;43451;49.060;10.616;2022-12-31T08:31:07;1.65;;;0.90;;
57627;SDS011;43451;49.060;10.616;2022-12-31T08:41:37;1.60;;;1.10;;
57627;SDS011;43451;49.060;10.616;2022-12-31T08:49:37;2.93;;;1.53;;
57627;SDS011;43451;49.060;10.616;2022-12-31T08:52:03;1.80;;;1.60;;
57627;SDS011;43451;49.060;10.616;2022-12-31T08:54:37;2.58;;;1.58;;
57627;SDS011;43451;49.060;10.616;2022-12-31T09:05:19;2.63;;;1.48;;
57627;SDS011;43451;49.060;10.616;2022-12-31T09:15:55;1.10;;;1.00;;
57627;SDS011;43451;49.060;10.616;2022-12-31T09:18:33;2.33;;;0.93;;
57627;SDS011;43451;49.060;10.616;2022-12-31T09:21:02;1.83;;;1.00;;
57627;SDS011;43451;49.060;10.616;2022-12-31T09:23:28;2.13;;;0.95;;
57627;SDS011;43451;49.060;10.616;2022-12-31T09:28:47;1.08;;;0.95;;
57627;SDS011;43451;49.060;10.616;2022-12-31T09:34:07;1.33;;;0.82;;
57627;SDS011;43451;49.060;10.616;2022-12-31T09:36:48;1.52;;;1.00;;
57627;SDS011;43451;49.060;10.616;2022-12-31T09:39:24;2.83;;;1.00;;
57627;SDS011;43451;49.060;10.616;2022-12-31T09:44:52;1.85;;;1.00;;
57627;SDS011;43451;49.060;10.616;2022-12-31T10:03:46;0.68;;;0.60;;
57627;SDS011;43451;49.060;10.616;2022-12-31T10:14:40;1.17;;;0.75;;
57627;SDS011;43451;49.060;10.616;2022-12-31T10:34:30;1.83;;;0.60;;
57627;SDS011;43451;49.060;10.616;2022-12-31T10:37:09;1.10;;;0.80;;
57627;SDS011;43451;49.060;10.616;2022-12-31T11:02:16;2.25;;;0.68;;
57627;SDS011;43451;49.060;10.616;2022-12-31T11:10:42;1.67;;;0.82;;
57627;SDS011;43451;49.060;10.616;2022-12-31T11:24:56;1.25;;;0.80;;
57627;SDS011;43451;49.060;10.616;2022-12-31T11:27:19;2.53;;;0.77;;
57627;SDS011;43451;49.060;10.616;2022-12-31T11:38:28;2.10;;;0.80;;
57627;SDS011;43451;49.060;10.616;2022-12-31T11:41:18;2.72;;;1.33;;
57627;SDS011;43451;49.060;10.616;2022-12-31T11:44:00;0.75;;;0.73;;
57627;SDS011;43451;49.060;10.616;2022-12-31T11:46:42;1.77;;;0.80;;
57627;SDS011;43451;49.060;10.616;2022-12-31T11:49:18;1.90;;;0.77;;
57627;SDS011;43451;49.060;10.616;2022-12-31T11:57:54;2.60;;;0.90;;
57627;SDS011;43451;49.060;10.616;2022-12-31T12:00:26;1.55;;;0.80;;
57627;SDS011;43451;49.060;10.616;2022-12-31T12:02:58;1.15;;;0.80;;
57627;SDS011;43451;49.060;10.616;2022-12-31T12:05:27;3.85;;;1.00;;
57627;SDS011;43451;49.060;10.616;2022-12-31T12:07:54;0.85;;;0.80;;
57627;SDS011;43451;49.060;10.616;2022-12-31T12:12:52;1.98;;;1.00;;
57627;SDS011;43451;49.060;10.616;2022-12-31T12:15:28;1.48;;;0.80;;
57627;SDS011;43451;49.060;10.616;2022-12-31T12:18:07;1.30;;;1.00;;
57627;SDS011;43451;49.060;10.616;2022-12-31T12:20:38;1.20;;;0.70;;
57627;SDS011;43451;49.060;10.616;2022-12-31T12:26:03;0.73;;;0.70;;
57627;SDS011;43451;49.060;10.616;2022-12-31T12:28:30;0.90;;;0.80;;
57627;SDS011;43451;49.060;10.616;2022-12-31T12:31:13;2.30;;;0.80;;
57627;SDS011;43451;49.060;10.616;2022-12-31T12:33:44;1.23;;;0.75;;
57627;SDS011;43451;49.060;10.616;2022-12-31T12:36:12;1.75;;;0.95;;
57627;SDS011;43451;49.060;10.616;2022-12-31T12:38:39;1.65;;;0.80;;
57627;SDS011;43451;49.060;10.616;2022-12-31T12:41:09;0.95;;;0.80;;
57627;SDS011;43451;49.060;10.616;2022-12-31T12:43:47;1.02;;;0.80;;
57627;SDS011;43451;49.060;10.616;2022-12-31T12:48:45;0.70;;;0.65;;
57627;SDS011;43451;49.060;10.616;2022-12-31T12:56:37;1.95;;;0.80;;
57627;SDS011;43451;49.060;10.616;2022-12-31T13:01:49;1.20;;;1.00;;
57627;SDS011;43451;49.060;10.616;2022-12-31T13:04:39;2.42;;;1.02;;
57627;SDS011;43451;49.060;10.616;2022-12-31T13:13:08;1.15;;;1.05;;
57627;SDS011;43451;49.060;10.616;2022-12-31T13:23:53;2.13;;;0.93;;
57627;SDS011;43451;49.060;10.616;2022-12-31T13:26:23;3.08;;;1.00;;
57627;SDS011;43451;49.060;10.616;2022-12-31T13:28:55;3.78;;;1.10;;
57627;SDS011;43451;49.060;10.616;2022-12-31T13:31:25;2.65;;;1.10;;
57627;SDS011;43451;49.060;10.616;2022-12-31T13:33:57;1.15;;;0.85;;
57627;SDS011;43451;49.060;10.616;2022-12-31T13:36:27;1.10;;;0.90;;
57627;SDS011;43451;49.060;10.616;2022-12-31T13:38:57;1.23;;;1.00;;
57627;SDS011;43451;49.060;10.616;2022-12-31T13:47:02;2.58;;;1.00;;
57627;SDS011;43451;49.060;10.616;2022-12-31T13:52:21;3.70;;;1.50;;
57627;SDS011;43451;49.060;10.616;2022-12-31T13:54:55;1.50;;;1.30;;
57627;SDS011;43451;49.060;10.616;2022-12-31T13:59:53;1.30;;;1.08;;
57627;SDS011;43451;49.060;10.616;2022-12-31T14:02:43;1.60;;;1.20;;
57627;SDS011;43451;49.060;10.616;2022-12-31T14:07:36;1.75;;;1.08;;
57627;SDS011;43451;49.060;10.616;2022-12-31T14:10:13;1.52;;;1.10;;
57627;SDS011;43451;49.060;10.616;2022-12-31T14:20:47;2.13;;;1.20;;
57627;SDS011;43451;49.060;10.616;2022-12-31T14:24:36;1.40;;;1.10;;
57627;SDS011;43451;49.060;10.616;2022-12-31T14:26:29;3.92;;;1.30;;
57627;SDS011;43451;49.060;10.616;2022-12-31T14:29:01;2.45;;;1.20;;
57627;SDS011;43451;49.060;10.616;2022-12-31T14:42:34;27.90;;;2.28;;
57627;SDS011;43451;49.060;10.616;2022-12-31T14:45:19;4.75;;;1.70;;
57627;SDS011;43451;49.060;10.616;2022-12-31T14:47:55;4.10;;;1.67;;
57627;SDS011;43451;49.060;10.616;2022-12-31T14:50:44;3.15;;;1.88;;
57627;SDS011;43451;49.060;10.616;2022-12-31T14:53:20;3.70;;;1.70;;
57627;SDS011;43451;49.060;10.616;2022-12-31T14:56:04;1.77;;;1.48;;
57627;SDS011;43451;49.060;10.616;2022-12-31T14:58:35;2.53;;;1.55;;
57627;SDS011;43451;49.060;10.616;2022-12-31T15:17:42;3.30;;;1.85;;
57627;SDS011;43451;49.060;10.616;2022-12-31T15:23:23;2.10;;;1.50;;
57627;SDS011;43451;49.060;10.616;2022-12-31T15:25:56;2.13;;;1.60;;
57627;SDS011;43451;49.060;10.616;2022-12-31T15:31:19;6.00;;;3.90;;
57627;SDS011;43451;49.060;10.616;2022-12-31T15:33:55;2.22;;;1.80;;
57627;SDS011;43451;49.060;10.616;2022-12-31T15:36:21;4.72;;;1.90;;
57627;SDS011;43451;49.060;10.616;2022-12-31T15:38:49;4.30;;;2.20;;
57627;SDS011;43451;49.060;10.616;2022-12-31T15:46:18;2.90;;;1.90;;
57627;SDS011;43451;49.060;10.616;2022-12-31T15:48:52;3.05;;;1.95;;
57627;SDS011;43451;49.060;10.616;2022-12-31T15:51:27;2.83;;;2.08;;
57627;SDS011;43451;49.060;10.616;2022-12-31T15:53:57;2.33;;;2.03;;
57627;SDS011;43451;49.060;10.616;2022-12-31T15:59:04;3.33;;;2.20;;
57627;SDS011;43451;49.060;10.616;2022-12-31T16:01:35;2.78;;;2.03;;
57627;SDS011;43451;49.060;10.616;2022-12-31T16:06:41;3.40;;;2.40;;
57627;SDS011;43451;49.060;10.616;2022-12-31T16:11:49;3.92;;;2.53;;
57627;SDS011;43451;49.060;10.616;2022-12-31T16:17:00;3.40;;;2.40;;
57627;SDS011;43451;49.060;10.616;2022-12-31T16:19:28;2.80;;;2.15;;
57627;SDS011;43451;49.060;10.616;2022-12-31T16:22:12;3.10;;;2.00;;
57627;SDS011;43451;49.060;10.616;2022-12-31T16:24:40;2.78;;;2.15;;
57627;SDS011;43451;49.060;10.616;2022-12-31T16:27:13;3.58;;;2.38;;
57627;SDS011;43451;49.060;10.616;2022-12-31T16:29:44;4.70;;;2.50;;
57627;SDS011;43451;49.060;10.616;2022-12-31T16:32:16;3.10;;;2.50;;
57627;SDS011;43451;49.060;10.616;2022-12-31T16:34:43;4.60;;;2.88;;
57627;SDS011;43451;49.060;10.616;2022-12-31T16:37:13;3.13;;;2.50;;
57627;SDS011;43451;49.060;10.616;2022-12-31T16:40:26;4.95;;;2.50;;
57627;SDS011;43451;49.060;10.616;2022-12-31T16:42:41;3.08;;;2.30;;
57627;SDS011;43451;49.060;10.616;2022-12-31T16:45:17;2.72;;;2.40;;
57627;SDS011;43451;49.060;10.616;2022-12-31T16:47:52;4.60;;;2.40;;
57627;SDS011;43451;49.060;10.616;2022-12-31T16:50:19;2.90;;;2.17;;
57627;SDS011;43451;49.060;10.616;2022-12-31T16:52:47;4.40;;;2.42;;
57627;SDS011;43451;49.060;10.616;2022-12-31T16:55:16;3.05;;;2.28;;
57627;SDS011;43451;49.060;10.616;2022-12-31T16:57:45;3.80;;;2.28;;
57627;SDS011;43451;49.060;10.616;2022-12-31T17:00:20;3.72;;;2.17;;
57627;SDS011;43451;49.060;10.616;2022-12-31T17:02:55;2.72;;;2.03;;
57627;SDS011;43451;49.060;10.616;2022-12-31T17:05:31;2.67;;;2.10;;
57627;SDS011;43451;49.060;10.616;2022-12-31T17:10:38;2.60;;;2.35;;
57627;SDS011;43451;49.060;10.616;2022-12-31T17:13:16;2.60;;;2.35;;
57627;SDS011;43451;49.060;10.616;2022-12-31T17:15:47;3.70;;;2.20;;
57627;SDS011;43451;49.060;10.616;2022-12-31T17:18:19;3.03;;;2.10;;
57627;SDS011;43451;49.060;10.616;2022-12-31T17:20:49;11.15;;;2.67;;
57627;SDS011;43451;49.060;10.616;2022-12-31T17:23:25;4.18;;;2.38;;
57627;SDS011;43451;49.060;10.616;2022-12-31T17:26:07;3.40;;;2.50;;
57627;SDS011;43451;49.060;10.616;2022-12-31T17:28:45;3.40;;;2.45;;
57627;SDS011;43451;49.060;10.616;2022-12-31T17:31:26;3.57;;;2.50;;
57627;SDS011;43451;49.060;10.616;2022-12-31T17:33:56;3.78;;;2.53;;
57627;SDS011;43451;49.060;10.616;2022-12-31T17:36:37;3.58;;;2.35;;
57627;SDS011;43451;49.060;10.616;2022-12-31T17:39:18;2.92;;;2.30;;
57627;SDS011;43451;49.060;10.616;2022-12-31T17:41:45;3.53;;;2.70;;
57627;SDS011;43451;49.060;10.616;2022-12-31T17:44:22;4.78;;;2.50;;
57627;SDS011;43451;49.060;10.616;2022-12-31T17:46:52;3.92;;;2.72;;
57627;SDS011;43451;49.060;10.616;2022-12-31T17:49:18;3.65;;;2.63;;
57627;SDS011;43451;49.060;10.616;2022-12-31T17:51:52;4.18;;;2.55;;
57627;SDS011;43451;49.060;10.616;2022-12-31T17:54:18;3.13;;;2.40;;
57627;SDS011;43451;49.060;10.616;2022-12-31T17:56:43;4.50;;;2.47;;
57627;SDS011;43451;49.060;10.616;2022-12-31T17:59:16;3.80;;;2.45;;
57627;SDS011;43451;49.060;10.616;2022-12-31T18:01:49;4.60;;;2.80;;
57627;SDS011;43451;49.060;10.616;2022-12-31T18:04:15;5.18;;;2.50;;
57627;SDS011;43451;49.060;10.616;2022-12-31T18:06:42;4.82;;;3.42;;
57627;SDS011;43451;49.060;10.616;2022-12-31T18:09:11;3.70;;;2.70;;
57627;SDS011;43451;49.060;10.616;2022-12-31T18:11:36;4.60;;;3.20;;
57627;SDS011;43451;49.060;10.616;2022-12-31T18:14:04;5.05;;;3.40;;
57627;SDS011;43451;49.060;10.616;2022-12-31T18:16:31;12.57;;;6.57;;
57627;SDS011;43451;49.060;10.616;2022-12-31T18:18:56;5.40;;;3.47;;
57627;SDS011;43451;49.060;10.616;2022-12-31T18:23:56;5.03;;;3.45;;
57627;SDS011;43451;49.060;10.616;2022-12-31T18:26:23;6.50;;;3.70;;
57627;SDS011;43451;49.060;10.616;2022-12-31T18:28:50;5.07;;;3.80;;
57627;SDS011;43451;49.060;10.616;2022-12-31T18:31:26;6.97;;;3.50;;
57627;SDS011;43451;49.060;10.616;2022-12-31T18:33:53;4.47;;;3.15;;
57627;SDS011;43451;49.060;10.616;2022-12-31T18:36:21;4.53;;;2.90;;
57627;SDS011;43451;49.060;10.616;2022-12-31T18:38:47;4.15;;;3.13;;
57627;SDS011;43451;49.060;10.616;2022-12-31T18:41:23;4.72;;;3.10;;
57627;SDS011;43451;49.060;10.616;2022-12-31T18:43:53;4.90;;;3.50;;
57627;SDS011;43451;49.060;10.616;2022-12-31T18:46:20;5.32;;;3.58;;
57627;SDS011;43451;49.060;10.616;2022-12-31T18:48:47;5.95;;;3.92;;
57627;SDS011;43451;49.060;10.616;2022-12-31T18:51:13;7.25;;;4.50;;
57627;SDS011;43451;49.060;10.616;2022-12-31T18:53:41;6.68;;;4.63;;
57627;SDS011;43451;49.060;10.616;2022-12-31T18:56:10;6.07;;;4.00;;
57627;SDS011;43451;49.060;10.616;2022-12-31T18:58:38;6.30;;;4.30;;
57627;SDS011;43451;49.060;10.616;2022-12-31T19:01:04;7.30;;;4.13;;
57627;SDS011;43451;49.060;10.616;2022-12-31T19:03:31;7.70;;;4.50;;
57627;SDS011;43451;49.060;10.616;2022-12-31T19:06:03;6.40;;;4.22;;
57627;SDS011;43451;49.060;10.616;2022-12-31T19:08:29;5.13;;;3.63;;
57627;SDS011;43451;49.060;10.616;2022-12-31T19:10:55;6.22;;;3.70;;
57627;SDS011;43451;49.060;10.616;2022-12-31T19:13:21;5.45;;;3.65;;
57627;SDS011;43451;49.060;10.616;2022-12-31T19:15:48;6.10;;;4.07;;
57627;SDS011;43451;49.060;10.616;2022-12-31T19:20:40;5.50;;;3.50;;
57627;SDS011;43451;49.060;10.616;2022-12-31T19:23:11;4.88;;;3.47;;
57627;SDS011;43451;49.060;10.616;2022-12-31T19:25:42;6.20;;;3.95;;
57627;SDS011;43451;49.060;10.616;2022-12-31T19:28:18;7.10;;;3.60;;
57627;SDS011;43451;49.060;10.616;2022-12-31T19:30:46;4.75;;;3.50;;
57627;SDS011;43451;49.060;10.616;2022-12-31T19:33:12;4.53;;;3.10;;
57627;SDS011;43451;49.060;10.616;2022-12-31T19:35:38;5.13;;;3.60;;
57627;SDS011;43451;49.060;10.616;2022-12-31T19:38:08;5.22;;;3.28;;
57627;SDS011;43451;49.060;10.616;2022-12-31T19:40:44;5.15;;;3.47;;
57627;SDS011;43451;49.060;10.616;2022-12-31T19:43:11;5.15;;;3.30;;
57627;SDS011;43451;49.060;10.616;2022-12-31T19:45:38;5.72;;;3.13;;
57627;SDS011;43451;49.060;10.616;2022-12-31T19:48:04;4.97;;;3.20;;
57627;SDS011;43451;49.060;10.616;2022-12-31T19:50:30;3.92;;;3.03;;
57627;SDS011;43451;49.060;10.616;2022-12-31T19:52:56;4.75;;;3.22;;
57627;SDS011;43451;49.060;10.616;2022-12-31T19:55:23;4.65;;;3.30;;
57627;SDS011;43451;49.060;10.616;2022-12-31T19:57:52;5.50;;;3.38;;
57627;SDS011;43451;49.060;10.616;2022-12-31T20:00:17;5.43;;;3.40;;